South Base, Georgia
Current Conditions -  °F | °C
As of 1:58 PM on Thursday 30 Oct 2014 (Local Time) from KWRB Reporting Station
Few Clouds Few Clouds  
Wind Chill: 69°   Ceiling: Unl
Heat Index: 69°   Visibility: 10mi
Dew Point: 49°   Wind: 6mph
Humidity: 49%   Direction: 350°N
Pressure: 30"   Gusts: NA
Location:  32.6187°N, 83.5735°W
Report Text: KWRB 301758Z AUTO 35005KT 10SM FEW040 21/10 A3000 RMK AO2 SLP160 T02050095 10206 20076 57020
Loading
Personal Weather Stations






























Interactive Weather Map
Tropical Storm Tracking
New forecast layout! Learn more

10-Day Weather Forecast

Advertisements
Track Severe Weather on mobile